sensor_id;sensor_type;location;lat;lon;timestamp;P1;durP1;ratioP1;P2;durP2;ratioP2
67074;SDS011;53990;50.334;18.640;2023-09-19T00:00:47;25.10;;;21.00;;
67074;SDS011;53990;50.334;18.640;2023-09-19T00:03:36;25.20;;;20.80;;
67074;SDS011;53990;50.334;18.640;2023-09-19T00:06:09;25.10;;;20.40;;
67074;SDS011;53990;50.334;18.640;2023-09-19T00:08:37;24.70;;;20.00;;
67074;SDS011;53990;50.334;18.640;2023-09-19T00:11:05;25.40;;;21.10;;
67074;SDS011;53990;50.334;18.640;2023-09-19T00:13:33;23.70;;;19.60;;
67074;SDS011;53990;50.334;18.640;2023-09-19T00:16:09;27.30;;;21.50;;
67074;SDS011;53990;50.334;18.640;2023-09-19T00:18:38;23.20;;;19.90;;
67074;SDS011;53990;50.334;18.640;2023-09-19T00:21:05;23.90;;;20.70;;
67074;SDS011;53990;50.334;18.640;2023-09-19T00:23:34;25.70;;;20.40;;
67074;SDS011;53990;50.334;18.640;2023-09-19T00:26:01;28.70;;;21.80;;
67074;SDS011;53990;50.334;18.640;2023-09-19T00:28:28;21.90;;;19.60;;
67074;SDS011;53990;50.334;18.640;2023-09-19T00:30:58;28.50;;;21.40;;
67074;SDS011;53990;50.334;18.640;2023-09-19T00:33:28;23.30;;;20.40;;
67074;SDS011;53990;50.334;18.640;2023-09-19T00:35:56;24.50;;;20.30;;
67074;SDS011;53990;50.334;18.640;2023-09-19T00:38:29;27.40;;;20.60;;
67074;SDS011;53990;50.334;18.640;2023-09-19T00:40:56;26.30;;;20.70;;
67074;SDS011;53990;50.334;18.640;2023-09-19T00:43:24;25.50;;;20.40;;
67074;SDS011;53990;50.334;18.640;2023-09-19T00:45:52;23.30;;;20.00;;
67074;SDS011;53990;50.334;18.640;2023-09-19T00:48:21;25.00;;;19.70;;
67074;SDS011;53990;50.334;18.640;2023-09-19T00:50:49;30.80;;;21.60;;
67074;SDS011;53990;50.334;18.640;2023-09-19T00:53:20;25.00;;;20.80;;
67074;SDS011;53990;50.334;18.640;2023-09-19T00:55:49;31.60;;;20.60;;
67074;SDS011;53990;50.334;18.640;2023-09-19T00:58:17;25.60;;;21.10;;
67074;SDS011;53990;50.334;18.640;2023-09-19T01:00:48;25.10;;;20.90;;
67074;SDS011;53990;50.334;18.640;2023-09-19T01:03:15;24.60;;;20.30;;
67074;SDS011;53990;50.334;18.640;2023-09-19T01:05:43;24.10;;;20.50;;
67074;SDS011;53990;50.334;18.640;2023-09-19T01:08:10;24.30;;;21.00;;
67074;SDS011;53990;50.334;18.640;2023-09-19T01:10:52;24.60;;;21.60;;
67074;SDS011;53990;50.334;18.640;2023-09-19T01:13:30;23.70;;;20.70;;
67074;SDS011;53990;50.334;18.640;2023-09-19T01:18:48;25.50;;;21.50;;
67074;SDS011;53990;50.334;18.640;2023-09-19T01:21:26;25.00;;;21.60;;
67074;SDS011;53990;50.334;18.640;2023-09-19T01:24:22;26.60;;;21.50;;
67074;SDS011;53990;50.334;18.640;2023-09-19T01:29:42;24.60;;;21.30;;
67074;SDS011;53990;50.334;18.640;2023-09-19T01:32:16;26.00;;;21.10;;
67074;SDS011;53990;50.334;18.640;2023-09-19T01:34:56;24.30;;;21.20;;
67074;SDS011;53990;50.334;18.640;2023-09-19T01:40:01;24.20;;;20.80;;
67074;SDS011;53990;50.334;18.640;2023-09-19T01:42:59;26.70;;;21.40;;
67074;SDS011;53990;50.334;18.640;2023-09-19T01:46:04;25.60;;;21.20;;
67074;SDS011;53990;50.334;18.640;2023-09-19T01:51:09;25.80;;;21.70;;
67074;SDS011;53990;50.334;18.640;2023-09-19T01:56:28;25.00;;;20.90;;
67074;SDS011;53990;50.334;18.640;2023-09-19T01:58:59;26.40;;;21.20;;
67074;SDS011;53990;50.334;18.640;2023-09-19T02:01:31;27.10;;;22.90;;
67074;SDS011;53990;50.334;18.640;2023-09-19T02:03:58;24.70;;;21.70;;
67074;SDS011;53990;50.334;18.640;2023-09-19T02:06:26;24.50;;;21.20;;
67074;SDS011;53990;50.334;18.640;2023-09-19T02:08:54;25.70;;;20.40;;
67074;SDS011;53990;50.334;18.640;2023-09-19T02:11:22;24.60;;;21.10;;
67074;SDS011;53990;50.334;18.640;2023-09-19T02:13:50;26.00;;;22.10;;
67074;SDS011;53990;50.334;18.640;2023-09-19T02:16:21;25.70;;;21.30;;
67074;SDS011;53990;50.334;18.640;2023-09-19T02:18:49;29.00;;;23.00;;
67074;SDS011;53990;50.334;18.640;2023-09-19T02:21:19;27.20;;;21.40;;
67074;SDS011;53990;50.334;18.640;2023-09-19T02:23:48;26.70;;;21.90;;
67074;SDS011;53990;50.334;18.640;2023-09-19T02:26:16;26.30;;;22.10;;
67074;SDS011;53990;50.334;18.640;2023-09-19T02:28:43;27.10;;;22.10;;
67074;SDS011;53990;50.334;18.640;2023-09-19T02:31:11;30.50;;;22.50;;
67074;SDS011;53990;50.334;18.640;2023-09-19T02:33:38;29.20;;;21.80;;
67074;SDS011;53990;50.334;18.640;2023-09-19T02:36:05;25.90;;;22.10;;
67074;SDS011;53990;50.334;18.640;2023-09-19T02:38:33;27.90;;;22.60;;
67074;SDS011;53990;50.334;18.640;2023-09-19T02:41:00;32.70;;;22.80;;
67074;SDS011;53990;50.334;18.640;2023-09-19T02:43:28;29.40;;;22.00;;
67074;SDS011;53990;50.334;18.640;2023-09-19T02:45:56;26.90;;;23.20;;
67074;SDS011;53990;50.334;18.640;2023-09-19T02:48:24;28.30;;;23.00;;
67074;SDS011;53990;50.334;18.640;2023-09-19T02:50:52;30.30;;;23.00;;
67074;SDS011;53990;50.334;18.640;2023-09-19T02:53:19;30.70;;;22.90;;
67074;SDS011;53990;50.334;18.640;2023-09-19T02:55:47;31.40;;;24.20;;
67074;SDS011;53990;50.334;18.640;2023-09-19T02:58:15;28.30;;;23.80;;
67074;SDS011;53990;50.334;18.640;2023-09-19T03:00:42;28.10;;;22.70;;
67074;SDS011;53990;50.334;18.640;2023-09-19T03:03:14;30.20;;;24.20;;
67074;SDS011;53990;50.334;18.640;2023-09-19T03:05:43;29.90;;;24.00;;
67074;SDS011;53990;50.334;18.640;2023-09-19T03:08:14;31.50;;;24.80;;
67074;SDS011;53990;50.334;18.640;2023-09-19T03:10:47;29.60;;;24.40;;
67074;SDS011;53990;50.334;18.640;2023-09-19T03:13:15;31.20;;;24.90;;
67074;SDS011;53990;50.334;18.640;2023-09-19T03:15:42;40.00;;;24.20;;
67074;SDS011;53990;50.334;18.640;2023-09-19T03:18:17;28.00;;;23.50;;
67074;SDS011;53990;50.334;18.640;2023-09-19T03:20:55;31.00;;;24.30;;
67074;SDS011;53990;50.334;18.640;2023-09-19T03:23:23;33.00;;;25.40;;
67074;SDS011;53990;50.334;18.640;2023-09-19T03:25:50;32.40;;;25.50;;
67074;SDS011;53990;50.334;18.640;2023-09-19T03:28:20;32.00;;;25.10;;
67074;SDS011;53990;50.334;18.640;2023-09-19T03:31:02;34.00;;;25.70;;
67074;SDS011;53990;50.334;18.640;2023-09-19T03:33:30;30.60;;;24.80;;
67074;SDS011;53990;50.334;18.640;2023-09-19T03:36:02;33.80;;;25.90;;
67074;SDS011;53990;50.334;18.640;2023-09-19T03:38:32;32.20;;;25.20;;
67074;SDS011;53990;50.334;18.640;2023-09-19T03:41:02;30.80;;;24.50;;
67074;SDS011;53990;50.334;18.640;2023-09-19T03:43:32;33.90;;;26.20;;
67074;SDS011;53990;50.334;18.640;2023-09-19T03:46:03;32.50;;;25.70;;
67074;SDS011;53990;50.334;18.640;2023-09-19T03:48:32;31.20;;;25.10;;
67074;SDS011;53990;50.334;18.640;2023-09-19T03:50:59;33.00;;;26.90;;
67074;SDS011;53990;50.334;18.640;2023-09-19T03:53:26;34.10;;;26.40;;
67074;SDS011;53990;50.334;18.640;2023-09-19T03:55:54;29.80;;;25.20;;
67074;SDS011;53990;50.334;18.640;2023-09-19T03:58:22;29.60;;;25.10;;
67074;SDS011;53990;50.334;18.640;2023-09-19T04:00:49;33.50;;;25.90;;
67074;SDS011;53990;50.334;18.640;2023-09-19T04:03:17;30.70;;;25.70;;
67074;SDS011;53990;50.334;18.640;2023-09-19T04:05:48;29.10;;;24.50;;
67074;SDS011;53990;50.334;18.640;2023-09-19T04:08:15;30.10;;;26.50;;
67074;SDS011;53990;50.334;18.640;2023-09-19T04:10:44;31.20;;;25.80;;
67074;SDS011;53990;50.334;18.640;2023-09-19T04:13:12;30.00;;;24.70;;
67074;SDS011;53990;50.334;18.640;2023-09-19T04:15:39;33.60;;;26.90;;
67074;SDS011;53990;50.334;18.640;2023-09-19T04:18:08;32.40;;;24.90;;
67074;SDS011;53990;50.334;18.640;2023-09-19T04:20:36;32.00;;;26.90;;
67074;SDS011;53990;50.334;18.640;2023-09-19T04:23:04;32.60;;;27.10;;
67074;SDS011;53990;50.334;18.640;2023-09-19T04:25:32;32.30;;;26.40;;
67074;SDS011;53990;50.334;18.640;2023-09-19T04:28:00;31.40;;;26.40;;
67074;SDS011;53990;50.334;18.640;2023-09-19T04:30:27;33.20;;;26.60;;
67074;SDS011;53990;50.334;18.640;2023-09-19T04:32:55;33.00;;;26.20;;
67074;SDS011;53990;50.334;18.640;2023-09-19T04:35:22;35.00;;;28.20;;
67074;SDS011;53990;50.334;18.640;2023-09-19T04:37:50;31.30;;;27.20;;
67074;SDS011;53990;50.334;18.640;2023-09-19T04:40:17;32.70;;;28.70;;
67074;SDS011;53990;50.334;18.640;2023-09-19T04:42:53;34.10;;;28.30;;
67074;SDS011;53990;50.334;18.640;2023-09-19T04:45:24;35.30;;;28.40;;
67074;SDS011;53990;50.334;18.640;2023-09-19T04:47:52;34.10;;;29.20;;
67074;SDS011;53990;50.334;18.640;2023-09-19T04:50:20;39.60;;;30.40;;
67074;SDS011;53990;50.334;18.640;2023-09-19T04:52:55;41.20;;;29.40;;
67074;SDS011;53990;50.334;18.640;2023-09-19T04:55:22;35.40;;;29.40;;
67074;SDS011;53990;50.334;18.640;2023-09-19T04:57:50;39.10;;;29.80;;
67074;SDS011;53990;50.334;18.640;2023-09-19T05:00:19;32.30;;;27.70;;
67074;SDS011;53990;50.334;18.640;2023-09-19T05:02:51;39.90;;;30.20;;
67074;SDS011;53990;50.334;18.640;2023-09-19T05:05:19;34.10;;;28.60;;
67074;SDS011;53990;50.334;18.640;2023-09-19T05:07:46;35.90;;;28.60;;
67074;SDS011;53990;50.334;18.640;2023-09-19T05:10:14;34.10;;;28.20;;
67074;SDS011;53990;50.334;18.640;2023-09-19T05:12:42;33.10;;;28.20;;
67074;SDS011;53990;50.334;18.640;2023-09-19T05:15:12;34.60;;;28.20;;
67074;SDS011;53990;50.334;18.640;2023-09-19T05:17:42;31.00;;;25.10;;
67074;SDS011;53990;50.334;18.640;2023-09-19T05:20:10;32.40;;;25.10;;
67074;SDS011;53990;50.334;18.640;2023-09-19T05:22:43;31.90;;;25.20;;
67074;SDS011;53990;50.334;18.640;2023-09-19T05:25:13;29.70;;;24.30;;
67074;SDS011;53990;50.334;18.640;2023-09-19T05:27:45;28.70;;;22.70;;
67074;SDS011;53990;50.334;18.640;2023-09-19T05:30:12;27.20;;;21.10;;
67074;SDS011;53990;50.334;18.640;2023-09-19T05:32:41;26.10;;;20.60;;
67074;SDS011;53990;50.334;18.640;2023-09-19T05:35:10;22.50;;;17.90;;
67074;SDS011;53990;50.334;18.640;2023-09-19T05:37:40;21.40;;;15.90;;
67074;SDS011;53990;50.334;18.640;2023-09-19T05:40:07;20.60;;;13.50;;
67074;SDS011;53990;50.334;18.640;2023-09-19T05:42:38;18.60;;;13.90;;
67074;SDS011;53990;50.334;18.640;2023-09-19T05:45:06;16.70;;;12.80;;
67074;SDS011;53990;50.334;18.640;2023-09-19T05:47:34;16.60;;;11.70;;
67074;SDS011;53990;50.334;18.640;2023-09-19T05:50:01;13.10;;;10.30;;
67074;SDS011;53990;50.334;18.640;2023-09-19T05:52:29;14.70;;;10.10;;
67074;SDS011;53990;50.334;18.640;2023-09-19T05:54:57;12.30;;;9.70;;
67074;SDS011;53990;50.334;18.640;2023-09-19T05:57:24;11.90;;;9.20;;
67074;SDS011;53990;50.334;18.640;2023-09-19T05:59:51;14.10;;;8.80;;
67074;SDS011;53990;50.334;18.640;2023-09-19T06:02:19;12.80;;;8.90;;
67074;SDS011;53990;50.334;18.640;2023-09-19T06:04:46;13.80;;;7.90;;
67074;SDS011;53990;50.334;18.640;2023-09-19T06:07:13;11.30;;;9.10;;
67074;SDS011;53990;50.334;18.640;2023-09-19T06:09:42;10.90;;;7.60;;
67074;SDS011;53990;50.334;18.640;2023-09-19T06:12:09;11.00;;;7.90;;
67074;SDS011;53990;50.334;18.640;2023-09-19T06:14:40;13.80;;;8.10;;
67074;SDS011;53990;50.334;18.640;2023-09-19T06:17:07;10.50;;;7.90;;
67074;SDS011;53990;50.334;18.640;2023-09-19T06:19:35;12.30;;;8.60;;
67074;SDS011;53990;50.334;18.640;2023-09-19T06:22:02;14.20;;;8.90;;
67074;SDS011;53990;50.334;18.640;2023-09-19T06:24:30;13.60;;;8.10;;
67074;SDS011;53990;50.334;18.640;2023-09-19T06:26:57;10.50;;;7.20;;
67074;SDS011;53990;50.334;18.640;2023-09-19T06:29:28;11.00;;;6.90;;
67074;SDS011;53990;50.334;18.640;2023-09-19T06:31:55;9.50;;;6.70;;
67074;SDS011;53990;50.334;18.640;2023-09-19T06:34:22;13.80;;;8.30;;
67074;SDS011;53990;50.334;18.640;2023-09-19T06:36:51;13.50;;;10.20;;
67074;SDS011;53990;50.334;18.640;2023-09-19T06:39:18;13.40;;;10.50;;
67074;SDS011;53990;50.334;18.640;2023-09-19T06:41:46;12.10;;;9.70;;
67074;SDS011;53990;50.334;18.640;2023-09-19T06:44:13;13.60;;;10.10;;
67074;SDS011;53990;50.334;18.640;2023-09-19T06:46:41;15.00;;;10.40;;
67074;SDS011;53990;50.334;18.640;2023-09-19T06:49:11;13.80;;;9.50;;
67074;SDS011;53990;50.334;18.640;2023-09-19T06:51:40;13.60;;;9.00;;
67074;SDS011;53990;50.334;18.640;2023-09-19T06:54:09;13.80;;;10.00;;
67074;SDS011;53990;50.334;18.640;2023-09-19T06:56:37;11.60;;;8.70;;
67074;SDS011;53990;50.334;18.640;2023-09-19T06:59:04;14.30;;;8.90;;
67074;SDS011;53990;50.334;18.640;2023-09-19T07:01:34;12.00;;;7.90;;
67074;SDS011;53990;50.334;18.640;2023-09-19T07:04:03;12.60;;;8.30;;
67074;SDS011;53990;50.334;18.640;2023-09-19T07:06:30;12.70;;;7.30;;
67074;SDS011;53990;50.334;18.640;2023-09-19T07:08:58;9.80;;;6.30;;
67074;SDS011;53990;50.334;18.640;2023-09-19T07:11:25;9.80;;;6.30;;
67074;SDS011;53990;50.334;18.640;2023-09-19T07:13:53;9.70;;;7.00;;
67074;SDS011;53990;50.334;18.640;2023-09-19T07:16:20;11.10;;;6.50;;
67074;SDS011;53990;50.334;18.640;2023-09-19T07:18:58;11.20;;;6.30;;
67074;SDS011;53990;50.334;18.640;2023-09-19T07:21:26;8.10;;;5.60;;
67074;SDS011;53990;50.334;18.640;2023-09-19T07:23:54;9.70;;;5.80;;
67074;SDS011;53990;50.334;18.640;2023-09-19T07:26:22;9.80;;;5.50;;
67074;SDS011;53990;50.334;18.640;2023-09-19T07:28:49;8.00;;;5.70;;
67074;SDS011;53990;50.334;18.640;2023-09-19T07:31:17;8.80;;;5.70;;
67074;SDS011;53990;50.334;18.640;2023-09-19T07:33:44;8.10;;;5.30;;
67074;SDS011;53990;50.334;18.640;2023-09-19T07:36:12;10.10;;;6.10;;
67074;SDS011;53990;50.334;18.640;2023-09-19T07:38:41;7.30;;;5.10;;
67074;SDS011;53990;50.334;18.640;2023-09-19T07:41:08;11.30;;;6.00;;
67074;SDS011;53990;50.334;18.640;2023-09-19T07:43:36;8.60;;;5.40;;
67074;SDS011;53990;50.334;18.640;2023-09-19T07:46:06;8.50;;;4.30;;
67074;SDS011;53990;50.334;18.640;2023-09-19T07:48:36;7.20;;;4.20;;
67074;SDS011;53990;50.334;18.640;2023-09-19T07:51:05;7.60;;;4.50;;
67074;SDS011;53990;50.334;18.640;2023-09-19T07:53:34;10.10;;;5.10;;
67074;SDS011;53990;50.334;18.640;2023-09-19T07:56:06;7.30;;;4.50;;
67074;SDS011;53990;50.334;18.640;2023-09-19T07:58:34;7.40;;;4.20;;
67074;SDS011;53990;50.334;18.640;2023-09-19T08:01:04;11.00;;;5.30;;
67074;SDS011;53990;50.334;18.640;2023-09-19T08:03:32;8.50;;;4.90;;
67074;SDS011;53990;50.334;18.640;2023-09-19T08:06:00;7.20;;;4.90;;
67074;SDS011;53990;50.334;18.640;2023-09-19T08:08:28;10.00;;;5.50;;
67074;SDS011;53990;50.334;18.640;2023-09-19T08:10:56;8.40;;;5.20;;
67074;SDS011;53990;50.334;18.640;2023-09-19T08:13:25;6.90;;;5.30;;
67074;SDS011;53990;50.334;18.640;2023-09-19T08:15:52;15.80;;;7.00;;
67074;SDS011;53990;50.334;18.640;2023-09-19T08:18:20;8.90;;;7.10;;
67074;SDS011;53990;50.334;18.640;2023-09-19T08:20:52;10.90;;;7.50;;
67074;SDS011;53990;50.334;18.640;2023-09-19T08:23:20;14.60;;;7.50;;
67074;SDS011;53990;50.334;18.640;2023-09-19T08:25:48;13.30;;;7.60;;
67074;SDS011;53990;50.334;18.640;2023-09-19T08:28:16;9.80;;;6.70;;
67074;SDS011;53990;50.334;18.640;2023-09-19T08:30:50;10.90;;;7.00;;
67074;SDS011;53990;50.334;18.640;2023-09-19T08:33:18;12.00;;;7.10;;
67074;SDS011;53990;50.334;18.640;2023-09-19T08:35:46;9.10;;;6.30;;
67074;SDS011;53990;50.334;18.640;2023-09-19T08:38:14;11.80;;;6.40;;
67074;SDS011;53990;50.334;18.640;2023-09-19T08:40:42;8.80;;;6.10;;
67074;SDS011;53990;50.334;18.640;2023-09-19T08:43:10;11.70;;;6.20;;
67074;SDS011;53990;50.334;18.640;2023-09-19T08:45:38;11.40;;;6.90;;
67074;SDS011;53990;50.334;18.640;2023-09-19T08:48:16;8.50;;;6.30;;
67074;SDS011;53990;50.334;18.640;2023-09-19T08:53:51;8.90;;;6.20;;
67074;SDS011;53990;50.334;18.640;2023-09-19T08:56:19;17.60;;;12.40;;
67074;SDS011;53990;50.334;18.640;2023-09-19T08:58:58;12.60;;;6.80;;
67074;SDS011;53990;50.334;18.640;2023-09-19T09:01:28;8.80;;;5.80;;
67074;SDS011;53990;50.334;18.640;2023-09-19T09:03:56;14.00;;;6.40;;
67074;SDS011;53990;50.334;18.640;2023-09-19T09:06:25;11.30;;;6.70;;
67074;SDS011;53990;50.334;18.640;2023-09-19T09:08:53;12.00;;;6.00;;
67074;SDS011;53990;50.334;18.640;2023-09-19T09:11:20;7.60;;;5.20;;
67074;SDS011;53990;50.334;18.640;2023-09-19T09:13:48;18.40;;;6.70;;
67074;SDS011;53990;50.334;18.640;2023-09-19T09:16:16;8.80;;;5.10;;
67074;SDS011;53990;50.334;18.640;2023-09-19T09:18:46;8.60;;;5.70;;
67074;SDS011;53990;50.334;18.640;2023-09-19T09:21:21;8.50;;;5.80;;
67074;SDS011;53990;50.334;18.640;2023-09-19T09:23:49;10.00;;;6.20;;
67074;SDS011;53990;50.334;18.640;2023-09-19T09:29:06;9.00;;;5.70;;
67074;SDS011;53990;50.334;18.640;2023-09-19T09:31:33;10.90;;;6.00;;
67074;SDS011;53990;50.334;18.640;2023-09-19T09:34:00;7.80;;;5.30;;
67074;SDS011;53990;50.334;18.640;2023-09-19T09:36:39;7.50;;;5.40;;
67074;SDS011;53990;50.334;18.640;2023-09-19T09:39:08;11.10;;;5.50;;
67074;SDS011;53990;50.334;18.640;2023-09-19T09:41:46;11.20;;;6.50;;
67074;SDS011;53990;50.334;18.640;2023-09-19T09:44:16;6.50;;;5.20;;
67074;SDS011;53990;50.334;18.640;2023-09-19T09:46:46;7.10;;;5.20;;
67074;SDS011;53990;50.334;18.640;2023-09-19T09:49:24;6.90;;;5.10;;
67074;SDS011;53990;50.334;18.640;2023-09-19T09:52:07;7.40;;;4.70;;
67074;SDS011;53990;50.334;18.640;2023-09-19T09:54:36;7.60;;;5.40;;
67074;SDS011;53990;50.334;18.640;2023-09-19T09:57:08;8.10;;;5.30;;
67074;SDS011;53990;50.334;18.640;2023-09-19T10:00:05;9.90;;;5.30;;
67074;SDS011;53990;50.334;18.640;2023-09-19T10:03:30;8.20;;;5.40;;
67074;SDS011;53990;50.334;18.640;2023-09-19T10:06:00;9.20;;;5.50;;
67074;SDS011;53990;50.334;18.640;2023-09-19T10:08:36;10.80;;;5.50;;
67074;SDS011;53990;50.334;18.640;2023-09-19T10:11:16;9.40;;;5.20;;
67074;SDS011;53990;50.334;18.640;2023-09-19T10:13:44;7.10;;;6.10;;
67074;SDS011;53990;50.334;18.640;2023-09-19T10:16:15;8.00;;;5.20;;
67074;SDS011;53990;50.334;18.640;2023-09-19T10:18:46;8.10;;;5.60;;
67074;SDS011;53990;50.334;18.640;2023-09-19T10:21:16;9.20;;;5.80;;
67074;SDS011;53990;50.334;18.640;2023-09-19T10:23:50;7.00;;;5.40;;
67074;SDS011;53990;50.334;18.640;2023-09-19T10:26:19;10.10;;;6.50;;
67074;SDS011;53990;50.334;18.640;2023-09-19T10:28:49;9.00;;;6.20;;
67074;SDS011;53990;50.334;18.640;2023-09-19T10:31:21;12.10;;;6.70;;
67074;SDS011;53990;50.334;18.640;2023-09-19T10:33:51;9.40;;;6.50;;
67074;SDS011;53990;50.334;18.640;2023-09-19T10:36:24;8.00;;;5.50;;
67074;SDS011;53990;50.334;18.640;2023-09-19T10:38:54;8.80;;;6.00;;
67074;SDS011;53990;50.334;18.640;2023-09-19T10:41:24;10.00;;;7.00;;
67074;SDS011;53990;50.334;18.640;2023-09-19T10:43:53;8.90;;;6.70;;
67074;SDS011;53990;50.334;18.640;2023-09-19T10:46:21;10.20;;;6.80;;
67074;SDS011;53990;50.334;18.640;2023-09-19T10:48:50;10.50;;;6.80;;
67074;SDS011;53990;50.334;18.640;2023-09-19T10:51:22;11.30;;;6.30;;
67074;SDS011;53990;50.334;18.640;2023-09-19T10:54:02;7.60;;;6.20;;
67074;SDS011;53990;50.334;18.640;2023-09-19T10:56:36;10.00;;;5.90;;
67074;SDS011;53990;50.334;18.640;2023-09-19T11:02:17;11.10;;;5.90;;
67074;SDS011;53990;50.334;18.640;2023-09-19T11:04:45;7.90;;;5.70;;
67074;SDS011;53990;50.334;18.640;2023-09-19T11:07:15;6.80;;;5.10;;
67074;SDS011;53990;50.334;18.640;2023-09-19T11:09:48;7.90;;;5.50;;
67074;SDS011;53990;50.334;18.640;2023-09-19T11:14:59;7.70;;;5.60;;
67074;SDS011;53990;50.334;18.640;2023-09-19T11:17:31;8.00;;;5.50;;
67074;SDS011;53990;50.334;18.640;2023-09-19T11:30:35;6.40;;;5.00;;
67074;SDS011;53990;50.334;18.640;2023-09-19T11:33:19;8.60;;;5.70;;
67074;SDS011;53990;50.334;18.640;2023-09-19T11:36:10;11.70;;;5.60;;
67074;SDS011;53990;50.334;18.640;2023-09-19T11:46:27;9.00;;;5.90;;
67074;SDS011;53990;50.334;18.640;2023-09-19T11:49:07;8.20;;;5.90;;
67074;SDS011;53990;50.334;18.640;2023-09-19T11:51:41;9.20;;;6.40;;
67074;SDS011;53990;50.334;18.640;2023-09-19T11:54:14;10.40;;;6.70;;
67074;SDS011;53990;50.334;18.640;2023-09-19T11:56:55;8.60;;;6.60;;
67074;SDS011;53990;50.334;18.640;2023-09-19T11:59:25;9.50;;;6.70;;
67074;SDS011;53990;50.334;18.640;2023-09-19T12:02:06;11.70;;;7.00;;
67074;SDS011;53990;50.334;18.640;2023-09-19T12:04:40;8.40;;;6.30;;
67074;SDS011;53990;50.334;18.640;2023-09-19T12:07:13;9.60;;;7.40;;
67074;SDS011;53990;50.334;18.640;2023-09-19T12:12:25;9.80;;;6.30;;
67074;SDS011;53990;50.334;18.640;2023-09-19T12:14:55;10.60;;;5.70;;
67074;SDS011;53990;50.334;18.640;2023-09-19T12:17:38;8.90;;;5.80;;
67074;SDS011;53990;50.334;18.640;2023-09-19T12:20:08;6.40;;;4.90;;
67074;SDS011;53990;50.334;18.640;2023-09-19T12:22:47;8.40;;;5.40;;
67074;SDS011;53990;50.334;18.640;2023-09-19T12:25:16;6.80;;;5.30;;
67074;SDS011;53990;50.334;18.640;2023-09-19T12:27:47;7.50;;;5.30;;
67074;SDS011;53990;50.334;18.640;2023-09-19T12:30:15;8.00;;;5.40;;
67074;SDS011;53990;50.334;18.640;2023-09-19T12:32:45;7.60;;;4.90;;
67074;SDS011;53990;50.334;18.640;2023-09-19T12:35:27;6.40;;;5.10;;
67074;SDS011;53990;50.334;18.640;2023-09-19T12:37:55;9.90;;;5.80;;
67074;SDS011;53990;50.334;18.640;2023-09-19T12:40:24;6.20;;;4.80;;
67074;SDS011;53990;50.334;18.640;2023-09-19T12:42:54;6.60;;;4.40;;
67074;SDS011;53990;50.334;18.640;2023-09-19T12:45:22;6.80;;;4.90;;
67074;SDS011;53990;50.334;18.640;2023-09-19T12:48:22;6.40;;;4.60;;
67074;SDS011;53990;50.334;18.640;2023-09-19T12:51:08;7.90;;;4.40;;
67074;SDS011;53990;50.334;18.640;2023-09-19T12:53:44;5.60;;;4.10;;
67074;SDS011;53990;50.334;18.640;2023-09-19T12:56:15;7.50;;;4.60;;
67074;SDS011;53990;50.334;18.640;2023-09-19T13:01:24;9.60;;;4.40;;
67074;SDS011;53990;50.334;18.640;2023-09-19T13:06:39;6.40;;;4.40;;
67074;SDS011;53990;50.334;18.640;2023-09-19T13:09:11;6.70;;;4.40;;
67074;SDS011;53990;50.334;18.640;2023-09-19T13:11:39;6.00;;;3.90;;
67074;SDS011;53990;50.334;18.640;2023-09-19T13:14:16;7.60;;;4.50;;
67074;SDS011;53990;50.334;18.640;2023-09-19T13:19:41;6.00;;;4.90;;
67074;SDS011;53990;50.334;18.640;2023-09-19T13:25:11;10.40;;;6.00;;
67074;SDS011;53990;50.334;18.640;2023-09-19T13:27:43;8.80;;;5.90;;
67074;SDS011;53990;50.334;18.640;2023-09-19T13:30:12;8.30;;;5.30;;
67074;SDS011;53990;50.334;18.640;2023-09-19T13:32:40;7.00;;;4.90;;
67074;SDS011;53990;50.334;18.640;2023-09-19T13:35:08;9.40;;;5.20;;
67074;SDS011;53990;50.334;18.640;2023-09-19T13:37:39;9.50;;;5.30;;
67074;SDS011;53990;50.334;18.640;2023-09-19T13:40:14;8.00;;;5.30;;
67074;SDS011;53990;50.334;18.640;2023-09-19T13:42:42;9.40;;;5.10;;
67074;SDS011;53990;50.334;18.640;2023-09-19T13:45:09;9.50;;;4.80;;
67074;SDS011;53990;50.334;18.640;2023-09-19T13:47:39;6.60;;;4.10;;
67074;SDS011;53990;50.334;18.640;2023-09-19T13:50:07;6.50;;;4.30;;
67074;SDS011;53990;50.334;18.640;2023-09-19T13:52:35;6.20;;;3.90;;
67074;SDS011;53990;50.334;18.640;2023-09-19T13:55:02;7.40;;;4.20;;
67074;SDS011;53990;50.334;18.640;2023-09-19T13:57:30;6.20;;;4.10;;
67074;SDS011;53990;50.334;18.640;2023-09-19T13:59:57;6.00;;;3.50;;
67074;SDS011;53990;50.334;18.640;2023-09-19T14:02:24;7.40;;;3.80;;
67074;SDS011;53990;50.334;18.640;2023-09-19T14:04:52;6.90;;;4.30;;
67074;SDS011;53990;50.334;18.640;2023-09-19T14:07:20;7.60;;;4.20;;
67074;SDS011;53990;50.334;18.640;2023-09-19T14:09:48;6.70;;;4.40;;
67074;SDS011;53990;50.334;18.640;2023-09-19T14:12:15;6.80;;;4.20;;
67074;SDS011;53990;50.334;18.640;2023-09-19T14:14:42;6.50;;;3.90;;
67074;SDS011;53990;50.334;18.640;2023-09-19T14:17:10;5.20;;;3.10;;
67074;SDS011;53990;50.334;18.640;2023-09-19T14:19:40;10.50;;;3.30;;
67074;SDS011;53990;50.334;18.640;2023-09-19T14:22:10;15.00;;;3.40;;
67074;SDS011;53990;50.334;18.640;2023-09-19T14:24:37;5.50;;;3.60;;
67074;SDS011;53990;50.334;18.640;2023-09-19T14:27:05;5.00;;;3.40;;
67074;SDS011;53990;50.334;18.640;2023-09-19T14:29:34;5.70;;;3.00;;
67074;SDS011;53990;50.334;18.640;2023-09-19T14:32:05;4.70;;;2.80;;
67074;SDS011;53990;50.334;18.640;2023-09-19T14:34:33;5.20;;;2.80;;
67074;SDS011;53990;50.334;18.640;2023-09-19T14:37:00;5.30;;;3.20;;
67074;SDS011;53990;50.334;18.640;2023-09-19T14:39:28;4.30;;;2.70;;
67074;SDS011;53990;50.334;18.640;2023-09-19T14:41:55;5.10;;;3.00;;
67074;SDS011;53990;50.334;18.640;2023-09-19T14:44:23;4.30;;;2.60;;
67074;SDS011;53990;50.334;18.640;2023-09-19T14:46:50;3.50;;;2.50;;
67074;SDS011;53990;50.334;18.640;2023-09-19T14:49:18;5.30;;;2.60;;
67074;SDS011;53990;50.334;18.640;2023-09-19T14:51:45;4.20;;;2.40;;
67074;SDS011;53990;50.334;18.640;2023-09-19T14:54:14;4.40;;;2.20;;
67074;SDS011;53990;50.334;18.640;2023-09-19T14:56:44;4.10;;;2.40;;
67074;SDS011;53990;50.334;18.640;2023-09-19T14:59:12;5.20;;;2.20;;
67074;SDS011;53990;50.334;18.640;2023-09-19T15:01:43;4.20;;;2.40;;
67074;SDS011;53990;50.334;18.640;2023-09-19T15:04:17;4.40;;;2.40;;
67074;SDS011;53990;50.334;18.640;2023-09-19T15:06:44;3.60;;;2.20;;
67074;SDS011;53990;50.334;18.640;2023-09-19T15:09:13;4.10;;;2.50;;
67074;SDS011;53990;50.334;18.640;2023-09-19T15:11:40;4.30;;;2.40;;
67074;SDS011;53990;50.334;18.640;2023-09-19T15:14:07;6.70;;;2.60;;
67074;SDS011;53990;50.334;18.640;2023-09-19T15:16:35;5.90;;;2.70;;
67074;SDS011;53990;50.334;18.640;2023-09-19T15:19:02;3.50;;;2.20;;
67074;SDS011;53990;50.334;18.640;2023-09-19T15:21:30;3.70;;;2.20;;
67074;SDS011;53990;50.334;18.640;2023-09-19T15:23:57;2.60;;;1.80;;
67074;SDS011;53990;50.334;18.640;2023-09-19T15:26:24;3.50;;;2.30;;
67074;SDS011;53990;50.334;18.640;2023-09-19T15:28:52;2.80;;;2.00;;
67074;SDS011;53990;50.334;18.640;2023-09-19T15:31:21;3.20;;;2.20;;
67074;SDS011;53990;50.334;18.640;2023-09-19T15:33:48;3.60;;;2.00;;
67074;SDS011;53990;50.334;18.640;2023-09-19T15:36:16;5.00;;;2.00;;